Time;durP1;ratioP1;P1;durP2;ratioP2;P2;SDS_P1;SDS_P2;PMS_P1;PMS_P2;Temp;Humidity;BMP_temperature;BMP_pressure;BME280_temperature;BME280_humidity;BME280_pressure;Samples;Min_cycle;Max_cycle;Signal;HPM_P1;HPM_P2
2023/05/17 00:00:19;;;;;;;21.65;3.53;;;;;;;9.05;100.00;102595.63;5045795;28;20028;-70
2023/05/17 00:02:45;;;;;;;21.25;4.57;;;;;;;9.01;100.00;102582.38;5046600;28;20044;-70
2023/05/17 00:05:10;;;;;;;15.65;3.53;;;;;;;8.96;100.00;102587.44;5063230;28;20485;-69
2023/05/17 00:07:36;;;;;;;26.40;5.55;;;;;;;8.94;100.00;102578.50;5064395;28;20025;-70
2023/05/17 00:10:02;;;;;;;26.63;4.50;;;;;;;8.85;100.00;102582.09;5065287;28;20040;-70
2023/05/17 00:12:28;;;;;;;12.70;3.50;;;;;;;8.83;100.00;102587.72;5065408;28;20071;-70
2023/05/17 00:14:53;;;;;;;17.63;4.00;;;;;;;8.80;100.00;102578.94;5058480;28;20056;-70
2023/05/17 00:17:19;;;;;;;15.87;4.20;;;;;;;8.88;100.00;102587.28;5049812;28;20024;-69
2023/05/17 00:19:44;;;;;;;30.45;4.47;;;;;;;8.93;100.00;102588.59;5046405;28;20094;-69
2023/05/17 00:22:11;;;;;;;22.47;4.53;;;;;;;9.04;100.00;102593.03;5049454;28;20079;-70
2023/05/17 00:24:36;;;;;;;20.65;4.28;;;;;;;9.18;100.00;102589.88;5050678;28;20035;-70
2023/05/17 00:27:01;;;;;;;17.53;3.90;;;;;;;9.19;100.00;102589.69;5045273;28;20396;-71
2023/05/17 00:29:27;;;;;;;25.77;4.80;;;;;;;9.23;100.00;102588.41;5050515;28;20031;-69
2023/05/17 00:31:52;;;;;;;17.87;4.77;;;;;;;9.31;100.00;102584.94;5048972;28;20033;-70
2023/05/17 00:34:18;;;;;;;19.92;3.95;;;;;;;9.34;100.00;102584.66;5051053;28;20035;-71
2023/05/17 00:36:43;;;;;;;28.77;4.75;;;;;;;9.41;100.00;102581.19;5064255;28;20044;-69
2023/05/17 00:39:09;;;;;;;19.67;4.47;;;;;;;9.45;100.00;102590.81;5065504;28;20059;-69
2023/05/17 00:41:34;;;;;;;20.38;4.43;;;;;;;9.53;100.00;102590.06;5050655;28;20028;-70
2023/05/17 00:44:00;;;;;;;25.67;4.33;;;;;;;9.55;100.00;102588.06;5063499;28;20031;-69
2023/05/17 00:46:27;;;;;;;23.67;4.93;;;;;;;9.55;100.00;102594.38;5048232;28;20050;-69
2023/05/17 00:48:53;;;;;;;27.42;5.05;;;;;;;9.60;100.00;102597.53;5048335;28;20036;-69
2023/05/17 00:51:19;;;;;;;30.73;5.10;;;;;;;9.60;100.00;102605.75;5063108;28;20032;-69
2023/05/17 00:53:47;;;;;;;22.92;4.68;;;;;;;9.62;100.00;102600.13;5053256;28;20029;-70
2023/05/17 00:56:12;;;;;;;25.65;5.10;;;;;;;9.70;100.00;102601.09;5045411;28;20058;-70
2023/05/17 00:58:39;;;;;;;25.17;4.57;;;;;;;9.74;100.00;102594.34;5064941;28;20020;-70
2023/05/17 01:01:05;;;;;;;24.00;5.30;;;;;;;9.74;100.00;102601.66;5042546;28;20380;-70
2023/05/17 01:03:31;;;;;;;24.23;4.70;;;;;;;9.77;100.00;102595.91;5062586;28;20051;-70
2023/05/17 01:05:56;;;;;;;17.52;4.05;;;;;;;9.70;100.00;102579.22;5050174;28;20088;-69
2023/05/17 01:08:22;;;;;;;19.05;4.75;;;;;;;9.67;100.00;102581.41;5061338;28;20135;-70
2023/05/17 01:11:05;;;;;;;21.83;5.07;;;;;;;9.64;100.00;102584.41;5061612;28;20654;-69
2023/05/17 01:13:47;;;;;;;21.00;4.30;;;;;;;9.61;100.00;102577.38;5063095;28;20027;-69
2023/05/17 01:16:24;;;;;;;22.25;5.60;;;;;;;9.57;100.00;102589.66;5041674;28;20596;-69
2023/05/17 01:19:07;;;;;;;19.25;4.40;;;;;;;9.57;100.00;102586.91;5061053;28;20032;-69
2023/05/17 01:22:16;;;;;;;23.95;5.30;;;;;;;9.51;100.00;102582.00;5059490;28;20032;-69
2023/05/17 01:24:59;;;;;;;19.08;4.32;;;;;;;9.54;100.00;102586.31;5062414;28;20033;-69
2023/05/17 01:27:27;;;;;;;18.83;4.13;;;;;;;9.52;100.00;102582.88;5062536;28;20541;-69
2023/05/17 01:29:55;;;;;;;24.00;5.22;;;;;;;9.49;100.00;102586.78;5064654;28;20545;-69
2023/05/17 01:32:21;;;;;;;32.08;5.80;;;;;;;9.48;100.00;102601.47;5065081;28;20085;-69
2023/05/17 01:34:46;;;;;;;23.27;6.13;;;;;;;9.46;100.00;102587.06;5061686;28;20496;-70
2023/05/17 01:37:12;;;;;;;22.88;5.97;;;;;;;9.47;100.00;102582.47;5045467;28;20102;-69
2023/05/17 01:39:38;;;;;;;19.25;4.63;;;;;;;9.42;100.00;102582.91;5047226;28;20036;-69
2023/05/17 01:42:20;;;;;;;17.53;4.80;;;;;;;9.38;100.00;102586.06;5042935;28;20066;-70
2023/05/17 01:45:01;;;;;;;17.65;5.22;;;;;;;9.37;100.00;102582.47;5042076;28;20032;-70
2023/05/17 01:47:39;;;;;;;22.45;5.10;;;;;;;9.35;100.00;102583.63;5046355;28;20025;-69
2023/05/17 01:50:06;;;;;;;;;;;;;;;9.33;100.00;102578.31;5056046;28;20051;-70
2023/05/17 01:52:41;;;;;;;23.00;5.40;;;;;;;9.34;100.00;102588.22;5037340;28;20004;-70
2023/05/17 01:55:40;;;;;;;23.13;5.50;;;;;;;9.34;100.00;102588.22;5043467;28;20029;-70
2023/05/17 01:58:08;;;;;;;17.75;4.55;;;;;;;9.37;100.00;102584.34;5045686;28;20558;-70
2023/05/17 02:00:35;;;;;;;21.00;4.85;;;;;;;9.33;100.00;102580.16;5043292;28;20028;-70
2023/05/17 02:03:00;;;;;;;24.75;4.97;;;;;;;9.40;100.00;102584.06;5046676;28;20036;-70
2023/05/17 02:05:26;;;;;;;18.37;4.90;;;;;;;9.48;100.00;102578.69;5037508;28;20034;-70
2023/05/17 02:07:51;;;;;;;30.35;6.13;;;;;;;9.52;100.00;102586.50;5045863;28;20025;-70
2023/05/17 02:10:17;;;;;;;21.93;5.07;;;;;;;9.54;100.00;102583.56;5044055;28;20070;-70
2023/05/17 02:12:42;;;;;;;27.63;5.20;;;;;;;9.56;100.00;102589.78;5048706;28;20503;-70
2023/05/17 02:15:10;;;;;;;19.60;5.33;;;;;;;9.59;100.00;102598.56;5050839;28;20108;-70
2023/05/17 02:17:38;;;;;;;20.35;5.07;;;;;;;9.53;100.00;102584.59;5062814;28;20017;-70
2023/05/17 02:20:04;;;;;;;20.90;4.95;;;;;;;9.53;100.00;102596.41;5044695;28;20060;-70
2023/05/17 02:22:30;;;;;;;29.40;5.55;;;;;;;9.53;100.00;102587.34;5048373;28;20025;-70
2023/05/17 02:24:55;;;;;;;22.48;5.10;;;;;;;9.51;100.00;102592.94;5046722;28;20048;-70
2023/05/17 02:27:21;;;;;;;18.00;5.28;;;;;;;9.49;100.00;102585.88;5046804;28;20028;-70
2023/05/17 02:29:46;;;;;;;23.50;5.68;;;;;;;9.49;100.00;102577.69;5048104;28;20103;-70
2023/05/17 02:32:12;;;;;;;36.47;6.03;;;;;;;9.41;100.00;102586.66;5049079;28;20024;-69
2023/05/17 02:34:37;;;;;;;25.13;5.93;;;;;;;9.34;100.00;102580.03;5045518;28;20044;-70
2023/05/17 02:37:03;;;;;;;25.73;6.03;;;;;;;9.33;100.00;102594.72;5057644;28;20044;-69
2023/05/17 02:39:31;;;;;;;23.23;6.13;;;;;;;9.34;100.00;102596.44;5065257;28;20040;-69
2023/05/17 02:41:57;;;;;;;23.27;5.88;;;;;;;9.39;100.00;102596.03;5068370;28;20029;-69
2023/05/17 02:44:22;;;;;;;25.87;6.37;;;;;;;9.46;100.00;102594.41;5064258;28;20025;-69
2023/05/17 02:46:47;;;;;;;22.60;5.03;;;;;;;9.47;100.00;102591.53;5049588;28;20024;-68
2023/05/17 02:49:13;;;;;;;25.47;6.37;;;;;;;9.48;100.00;102603.31;5065236;28;20035;-68
2023/05/17 02:51:38;;;;;;;19.97;5.13;;;;;;;9.50;100.00;102593.13;5065197;28;20041;-69
2023/05/17 02:54:05;;;;;;;22.13;5.83;;;;;;;9.53;100.00;102598.28;5039449;28;20016;-70
2023/05/17 02:56:31;;;;;;;19.13;5.60;;;;;;;9.52;100.00;102602.03;5045409;28;20028;-69
2023/05/17 02:59:00;;;;;;;19.48;5.90;;;;;;;9.46;100.00;102598.00;5066100;28;20032;-69
2023/05/17 03:01:28;;;;;;;23.60;5.57;;;;;;;9.48;100.00;102601.47;5066481;28;20039;-69
2023/05/17 03:03:54;;;;;;;23.85;5.40;;;;;;;9.49;100.00;102594.97;5063877;28;20102;-69
2023/05/17 03:06:19;;;;;;;23.73;5.20;;;;;;;9.54;100.00;102591.78;5064058;28;20040;-69
2023/05/17 03:08:45;;;;;;;20.27;5.33;;;;;;;9.62;100.00;102595.50;5047965;28;20132;-69
2023/05/17 03:11:10;;;;;;;16.33;5.00;;;;;;;9.60;100.00;102602.16;5045771;28;20036;-68
2023/05/17 03:13:36;;;;;;;24.90;6.07;;;;;;;9.65;100.00;102606.16;5067392;28;20028;-69
2023/05/17 03:16:03;;;;;;;19.77;5.35;;;;;;;9.68;100.00;102605.00;5064045;28;20024;-69
2023/05/17 03:18:28;;;;;;;28.13;5.25;;;;;;;9.71;100.00;102607.47;5038798;28;20032;-69
2023/05/17 03:20:53;;;;;;;25.03;4.90;;;;;;;9.74;100.00;102609.88;5052657;28;20398;-69
2023/05/17 03:23:20;;;;;;;25.35;6.57;;;;;;;9.73;100.00;102610.91;5070485;28;20024;-70
2023/05/17 03:25:46;;;;;;;21.02;5.13;;;;;;;9.76;100.00;102607.88;5064858;28;20111;-69
2023/05/17 03:28:11;;;;;;;23.25;5.45;;;;;;;9.71;100.00;102610.19;5064121;28;20043;-69
2023/05/17 03:30:37;;;;;;;25.58;6.22;;;;;;;9.68;100.00;102615.94;5052409;28;20028;-74
2023/05/17 03:33:02;;;;;;;23.48;5.45;;;;;;;9.62;100.00;102616.53;5052607;28;20020;-73
2023/05/17 03:35:28;;;;;;;26.07;6.47;;;;;;;9.59;100.00;102625.03;5063463;28;20471;-73
2023/05/17 03:37:53;;;;;;;23.20;6.10;;;;;;;9.55;100.00;102627.22;5063398;28;20416;-73
2023/05/17 03:40:19;;;;;;;26.88;5.53;;;;;;;9.51;100.00;102628.50;5064068;28;20879;-74
2023/05/17 03:42:44;;;;;;;31.23;5.93;;;;;;;9.51;100.00;102633.13;5052624;28;20054;-74
2023/05/17 03:45:10;;;;;;;21.23;5.00;;;;;;;9.47;100.00;102629.84;5052269;28;20044;-74
2023/05/17 03:47:35;;;;;;;21.35;5.32;;;;;;;9.41;100.00;102629.53;5062464;28;20033;-74
2023/05/17 03:50:01;;;;;;;22.02;5.15;;;;;;;9.33;100.00;102633.00;5065899;28;20403;-73
2023/05/17 03:52:26;;;;;;;28.70;6.00;;;;;;;9.41;100.00;102630.41;5063613;28;20104;-73
2023/05/17 03:54:52;;;;;;;28.15;5.90;;;;;;;9.29;100.00;102634.28;5051788;28;20479;-74
2023/05/17 03:57:18;;;;;;;20.47;4.63;;;;;;;9.22;100.00;102635.91;5065029;28;20067;-74
2023/05/17 03:59:44;;;;;;;24.10;5.88;;;;;;;9.22;100.00;102640.47;5065479;28;20021;-74
2023/05/17 04:02:10;;;;;;;24.70;6.45;;;;;;;9.21;100.00;102638.75;5067543;28;20027;-74
2023/05/17 04:04:35;;;;;;;22.27;6.43;;;;;;;9.13;100.00;102641.38;5067278;28;20024;-74
2023/05/17 04:07:01;;;;;;;21.67;5.03;;;;;;;9.13;100.00;102647.69;5067591;28;20016;-74
2023/05/17 04:09:26;;;;;;;19.25;5.40;;;;;;;9.11;100.00;102637.91;5064377;28;20103;-73
2023/05/17 04:11:52;;;;;;;18.35;5.43;;;;;;;9.10;100.00;102648.00;5065739;28;20047;-73
2023/05/17 04:14:18;;;;;;;24.83;5.87;;;;;;;9.06;100.00;102645.66;5065985;28;20028;-73
2023/05/17 04:16:43;;;;;;;19.85;6.55;;;;;;;9.04;100.00;102658.63;5064011;28;20389;-73
2023/05/17 04:19:09;;;;;;;20.63;4.50;;;;;;;9.04;100.00;102658.63;5068647;28;20024;-73
2023/05/17 04:21:34;;;;;;;19.43;5.90;;;;;;;9.16;100.00;102663.81;5043986;28;20032;-73
2023/05/17 04:24:00;;;;;;;19.08;5.32;;;;;;;9.27;100.00;102668.25;5045126;28;20530;-74
2023/05/17 04:26:26;;;;;;;16.40;4.65;;;;;;;9.35;100.00;102665.69;5049931;28;20021;-72
2023/05/17 04:28:52;;;;;;;16.65;4.78;;;;;;;9.48;100.00;102667.09;5059899;28;20033;-73
2023/05/17 04:31:18;;;;;;;26.73;5.78;;;;;;;9.57;100.00;102670.84;5065555;28;20028;-73
2023/05/17 04:33:43;;;;;;;19.80;4.93;;;;;;;9.68;100.00;102673.41;5063259;28;20039;-74
2023/05/17 04:36:09;;;;;;;32.57;5.43;;;;;;;9.74;100.00;102675.56;5064762;28;20464;-73
2023/05/17 04:38:34;;;;;;;24.02;5.25;;;;;;;9.83;100.00;102681.00;5054624;28;20076;-75
2023/05/17 04:41:04;;;;;;;20.75;4.93;;;;;;;9.96;100.00;102681.56;5046155;28;20078;-74
2023/05/17 04:43:30;;;;;;;15.25;5.63;;;;;;;10.06;100.00;102689.75;5048977;28;20028;-74
2023/05/17 04:45:57;;;;;;;29.30;5.93;;;;;;;10.27;100.00;102693.16;5043738;28;20081;-74
2023/05/17 04:48:23;;;;;;;26.67;5.97;;;;;;;10.40;100.00;102699.16;5062783;28;20048;-74
2023/05/17 04:50:48;;;;;;;36.97;6.40;;;;;;;10.45;100.00;102691.31;5049827;28;20032;-74
2023/05/17 04:53:14;;;;;;;30.88;5.22;;;;;;;10.49;100.00;102700.97;5049921;28;20017;-74
2023/05/17 04:55:40;;;;;;;28.23;5.82;;;;;;;10.51;100.00;102707.19;5044380;28;20095;-73
2023/05/17 04:58:05;;;;;;;29.05;5.80;;;;;;;10.54;100.00;102707.75;5067921;28;20448;-74
2023/05/17 05:00:31;;;;;;;26.50;6.03;;;;;;;10.60;100.00;102709.00;5064309;28;20032;-74
2023/05/17 05:02:56;;;;;;;35.63;6.50;;;;;;;10.60;100.00;102706.25;5065423;28;20032;-74
2023/05/17 05:05:23;;;;;;;30.20;5.43;;;;;;;10.64;100.00;102715.91;5052102;28;20150;-74
2023/05/17 05:07:49;;;;;;;22.77;4.80;;;;;;;10.76;100.00;102717.41;5063147;28;20021;-74
2023/05/17 05:10:14;;;;;;;29.50;5.73;;;;;;;10.88;100.00;102719.81;5062629;28;20102;-74
2023/05/17 05:12:40;;;;;;;25.02;5.15;;;;;;;10.94;100.00;102734.78;5060353;28;20116;-75
2023/05/17 05:15:06;;;;;;;17.98;4.85;;;;;;;11.09;100.00;102725.88;5049634;28;20029;-74
2023/05/17 05:17:32;;;;;;;21.35;5.35;;;;;;;11.37;100.00;102734.91;5061882;28;20043;-74
2023/05/17 05:19:57;;;;;;;20.20;4.93;;;;;;;11.49;97.49;102734.53;5050368;28;20376;-74
2023/05/17 05:22:23;;;;;;;29.13;5.40;;;;;;;12.06;94.12;102746.88;5063200;28;20025;-74
2023/05/17 05:24:48;;;;;;;27.17;5.00;;;;;;;12.64;86.91;102747.94;5063581;28;20452;-74
2023/05/17 05:27:14;;;;;;;21.07;4.90;;;;;;;13.48;83.86;102753.22;5061326;28;20111;-76
2023/05/17 05:29:41;;;;;;;27.97;4.67;;;;;;;13.77;80.61;102756.34;5067503;28;20108;-74
2023/05/17 05:32:07;;;;;;;17.70;4.70;;;;;;;13.34;81.63;102753.03;5041547;28;20072;-74
2023/05/17 05:34:32;;;;;;;26.60;4.80;;;;;;;12.92;83.10;102761.28;5063824;28;20508;-74
2023/05/17 05:36:58;;;;;;;31.07;4.33;;;;;;;12.87;84.91;102760.06;5061694;28;20056;-73
2023/05/17 05:39:23;;;;;;;18.93;4.30;;;;;;;12.23;82.47;102762.47;5065559;28;20869;-74
2023/05/17 05:41:50;;;;;;;24.67;4.80;;;;;;;11.96;83.79;102763.44;5065515;28;20023;-74
2023/05/17 05:44:16;;;;;;;;;;;;;;;11.75;82.49;102768.41;5047826;28;20037;-75
2023/05/17 05:46:41;;;;;;;18.15;4.20;;;;;;;12.61;80.75;102767.50;5065065;28;19927;-75
2023/05/17 05:49:06;;;;;;;26.97;4.33;;;;;;;13.30;75.84;102776.41;5068515;28;20029;-76
2023/05/17 05:51:33;;;;;;;21.37;4.03;;;;;;;13.89;74.74;102781.69;5068012;28;20024;-75
2023/05/17 05:53:58;;;;;;;19.43;4.27;;;;;;;14.53;69.79;102787.16;5067677;28;20069;-75
2023/05/17 05:56:26;;;;;;;26.07;4.23;;;;;;;15.22;69.19;102777.06;5069098;28;20764;-76
2023/05/17 05:58:52;;;;;;;21.20;4.22;;;;;;;15.66;66.00;102777.34;5053270;28;20035;-74
2023/05/17 06:01:17;;;;;;;22.43;4.97;;;;;;;16.08;64.20;102774.94;5068623;28;20866;-75
2023/05/17 06:03:42;;;;;;;21.03;4.30;;;;;;;16.30;62.06;102793.41;5050702;28;20467;-75
2023/05/17 06:06:09;;;;;;;16.37;3.70;;;;;;;16.10;61.66;102784.78;5046650;28;20020;-75
2023/05/17 06:08:34;;;;;;;24.38;4.85;;;;;;;16.69;62.58;102788.53;5062556;28;20021;-75
2023/05/17 06:10:59;;;;;;;23.90;3.93;;;;;;;16.72;63.23;102782.63;5064394;28;20094;-74
2023/05/17 06:13:25;;;;;;;16.77;3.53;;;;;;;17.28;60.87;102784.72;5067311;28;20040;-73
2023/05/17 06:15:50;;;;;;;22.70;4.13;;;;;;;17.35;60.13;102793.97;5064510;28;20024;-73
2023/05/17 06:18:16;;;;;;;23.03;5.03;;;;;;;17.37;60.81;102800.16;5070318;28;20383;-73
2023/05/17 06:20:41;;;;;;;26.53;4.30;;;;;;;17.83;58.72;102796.88;5063311;28;20044;-73
2023/05/17 06:23:07;;;;;;;16.33;3.60;;;;;;;17.16;55.78;102794.53;5069251;28;20103;-73
2023/05/17 06:25:32;;;;;;;16.03;3.97;;;;;;;17.50;58.16;102803.97;5066263;28;20041;-73
2023/05/17 06:27:58;;;;;;;10.60;3.50;;;;;;;17.72;57.75;102800.19;5068996;28;20024;-73
2023/05/17 06:30:23;;;;;;;25.87;4.80;;;;;;;17.38;55.76;102804.63;5050521;28;20422;-73
2023/05/17 06:32:48;;;;;;;25.23;4.70;;;;;;;16.46;57.52;102809.88;5049525;28;20028;-73
2023/05/17 06:35:14;;;;;;;23.27;4.23;;;;;;;15.72;61.12;102805.13;5049928;28;20013;-73
2023/05/17 06:37:39;;;;;;;21.03;3.77;;;;;;;15.73;60.63;102817.00;5063985;28;20041;-73
2023/05/17 06:40:06;;;;;;;14.27;3.80;;;;;;;15.28;61.41;102816.91;5068455;28;20449;-73
2023/05/17 06:42:32;;;;;;;16.50;3.67;;;;;;;16.25;61.09;102807.81;5066486;28;20117;-73
2023/05/17 06:44:58;;;;;;;17.25;3.42;;;;;;;16.62;57.45;102813.38;5070029;28;20111;-73
2023/05/17 06:47:24;;;;;;;18.92;4.05;;;;;;;14.98;61.91;102826.00;5068050;28;20584;-73
2023/05/17 06:49:49;;;;;;;17.13;3.73;;;;;;;14.25;63.35;102824.44;5053351;28;20119;-73
2023/05/17 06:52:15;;;;;;;21.07;4.13;;;;;;;14.02;65.58;102821.47;5052379;28;20111;-72
2023/05/17 06:54:40;;;;;;;24.03;3.50;;;;;;;14.25;64.24;102828.03;5051739;28;20070;-73
2023/05/17 06:57:06;;;;;;;13.60;3.17;;;;;;;15.25;60.37;102829.19;5063665;28;20025;-73
2023/05/17 06:59:31;;;;;;;23.00;3.87;;;;;;;16.09;57.13;102834.72;5053593;28;20031;-73
2023/05/17 07:01:58;;;;;;;19.17;3.07;;;;;;;16.32;56.91;102830.06;5052160;28;20036;-73
2023/05/17 07:04:25;;;;;;;13.27;2.67;;;;;;;16.96;55.58;102826.66;5066593;28;20051;-73
2023/05/17 07:06:50;;;;;;;21.50;4.03;;;;;;;16.75;55.96;102835.69;5046495;28;20565;-73
2023/05/17 07:09:16;;;;;;;17.37;3.53;;;;;;;16.56;54.44;102838.16;5062551;28;20052;-73
2023/05/17 07:11:41;;;;;;;15.40;3.50;;;;;;;16.39;55.46;102836.59;5065437;28;20468;-73
2023/05/17 07:14:06;;;;;;;20.97;3.20;;;;;;;16.66;55.10;102841.50;5065486;28;20158;-73
2023/05/17 07:16:32;;;;;;;15.97;3.47;;;;;;;16.33;55.42;102840.91;5066452;28;20020;-72
2023/05/17 07:18:57;;;;;;;20.50;3.23;;;;;;;17.14;56.29;102838.22;5046163;28;20422;-73
2023/05/17 07:21:23;;;;;;;15.77;3.97;;;;;;;17.02;54.30;102831.44;5065069;28;20029;-73
2023/05/17 07:23:49;;;;;;;17.33;3.70;;;;;;;16.84;54.72;102836.47;5041629;28;20047;-73
2023/05/17 07:26:18;;;;;;;15.27;3.47;;;;;;;16.13;55.47;102844.38;5063783;28;20040;-73
2023/05/17 07:28:43;;;;;;;14.25;4.10;;;;;;;16.61;57.08;102838.44;5049910;28;20078;-72
2023/05/17 07:31:09;;;;;;;24.60;4.07;;;;;;;16.44;56.30;102840.50;5066174;28;20476;-72
2023/05/17 07:33:36;;;;;;;17.37;2.87;;;;;;;16.60;56.48;102845.03;5066594;28;20089;-74
2023/05/17 07:36:01;;;;;;;18.92;3.60;;;;;;;16.32;57.57;102841.13;5066357;28;20120;-73
2023/05/17 07:38:27;;;;;;;26.30;4.10;;;;;;;16.52;56.92;102843.19;5065374;28;20127;-73
2023/05/17 07:40:52;;;;;;;13.37;2.70;;;;;;;16.22;57.61;102857.09;5066289;28;20472;-73
2023/05/17 07:43:18;;;;;;;22.20;3.40;;;;;;;16.77;57.38;102854.88;5068520;28;20403;-72
2023/05/17 07:45:43;;;;;;;13.47;2.77;;;;;;;16.30;56.30;102854.25;5055745;28;20033;-73
2023/05/17 07:48:09;;;;;;;14.30;3.30;;;;;;;17.00;56.60;102853.78;5064024;28;20016;-73
2023/05/17 07:50:34;;;;;;;16.47;2.70;;;;;;;16.27;53.28;102857.41;5044644;28;20029;-74
2023/05/17 07:53:00;;;;;;;19.93;3.53;;;;;;;16.23;55.86;102858.81;5066063;28;20040;-73
2023/05/17 07:55:25;;;;;;;13.00;3.73;;;;;;;16.04;52.33;102862.06;5045820;28;20025;-73
2023/05/17 07:57:51;;;;;;;11.47;2.07;;;;;;;15.60;53.35;102863.75;5059820;28;20029;-72
2023/05/17 08:00:18;;;;;;;17.80;3.40;;;;;;;16.19;55.49;102860.22;5063265;28;20024;-73
2023/05/17 08:02:44;;;;;;;14.90;2.42;;;;;;;16.18;53.68;102858.50;5064043;28;20059;-72
2023/05/17 08:05:10;;;;;;;22.15;3.00;;;;;;;15.63;55.63;102857.88;5063615;28;20028;-74
2023/05/17 08:07:35;;;;;;;10.87;2.47;;;;;;;15.75;52.83;102875.75;5062313;28;20028;-72
2023/05/17 08:10:01;;;;;;;11.57;2.77;;;;;;;15.69;51.74;102857.97;5062249;28;20486;-73
2023/05/17 08:12:26;;;;;;;15.20;2.90;;;;;;;15.52;52.75;102872.09;5049231;28;20033;-73
2023/05/17 08:14:52;;;;;;;15.17;3.43;;;;;;;15.35;53.82;102879.56;5067542;28;20479;-73
2023/05/17 08:17:17;;;;;;;20.80;2.97;;;;;;;15.65;53.38;102875.97;5063440;28;20074;-73
2023/05/17 08:19:43;;;;;;;9.07;2.70;;;;;;;15.34;49.43;102871.44;5060653;28;20547;-73
2023/05/17 08:22:09;;;;;;;12.73;2.60;;;;;;;15.52;51.38;102878.44;5061208;28;20029;-72
2023/05/17 08:24:34;;;;;;;13.85;2.45;;;;;;;15.31;50.72;102874.56;5061350;28;20039;-72
2023/05/17 08:27:01;;;;;;;11.73;2.13;;;;;;;15.23;50.83;102871.81;5061443;28;20396;-73
2023/05/17 08:29:26;;;;;;;15.73;2.30;;;;;;;14.85;50.75;102875.38;5061085;28;20021;-73
2023/05/17 08:31:54;;;;;;;18.07;2.53;;;;;;;15.14;50.89;102875.63;5058930;28;20273;-71
2023/05/17 08:34:20;;;;;;;12.38;3.13;;;;;;;15.01;51.33;102864.28;5062659;28;20026;-73
2023/05/17 08:36:46;;;;;;;13.70;2.57;;;;;;;14.93;50.89;102878.97;5060848;28;20059;-72
2023/05/17 08:39:12;;;;;;;13.25;2.90;;;;;;;15.33;51.49;102886.31;5064754;28;20051;-72
2023/05/17 08:41:38;;;;;;;17.10;2.63;;;;;;;15.32;49.55;102881.78;5060971;28;20040;-72
2023/05/17 08:44:05;;;;;;;10.53;2.40;;;;;;;15.22;51.01;102878.38;5061890;28;20041;-72
2023/05/17 08:46:32;;;;;;;15.23;2.20;;;;;;;15.11;51.60;102873.25;5060711;28;20124;-73
2023/05/17 08:48:58;;;;;;;;;;;;;;;15.67;51.90;102873.00;5060850;28;20029;-72
2023/05/17 08:51:25;;;;;;;14.40;2.08;;;;;;;15.58;51.86;102869.44;5062164;28;20356;-73
2023/05/17 08:53:50;;;;;;;10.73;2.25;;;;;;;15.67;50.56;102878.53;5045804;28;20082;-72
2023/05/17 08:56:19;;;;;;;10.87;2.00;;;;;;;15.63;51.01;102864.22;5062980;28;20028;-72
2023/05/17 08:58:47;;;;;;;14.18;2.63;;;;;;;15.67;51.31;102871.13;5059350;28;20029;-73
2023/05/17 09:01:15;;;;;;;17.33;3.28;;;;;;;15.81;50.51;102875.88;5064279;28;20024;-73
2023/05/17 09:03:45;;;;;;;12.75;3.22;;;;;;;16.23;49.08;102878.19;5062178;28;20108;-72
2023/05/17 09:06:12;;;;;;;9.98;2.30;;;;;;;16.01;48.89;102881.81;5047887;28;20403;-72
2023/05/17 09:08:38;;;;;;;15.80;2.10;;;;;;;15.84;49.32;102885.72;5063512;28;20025;-72
2023/05/17 09:11:03;;;;;;;11.93;2.40;;;;;;;15.84;49.40;102882.97;5063023;28;20047;-73
2023/05/17 09:13:29;;;;;;;12.20;2.23;;;;;;;16.21;49.97;102872.81;5064322;28;20067;-72
2023/05/17 09:15:54;;;;;;;11.83;2.57;;;;;;;16.48;49.14;102886.13;5049162;28;20044;-71
2023/05/17 09:18:29;;;;;;;10.90;2.43;;;;;;;16.14;49.14;102876.50;5064033;28;20020;-72
2023/05/17 09:20:55;;;;;;;9.85;2.35;;;;;;;16.04;49.85;102882.28;5067676;28;20542;-72
2023/05/17 09:23:21;;;;;;;17.13;2.73;;;;;;;15.91;50.33;102875.66;5067165;28;20024;-73
2023/05/17 09:25:49;;;;;;;17.02;2.60;;;;;;;16.00;50.91;102869.88;5054372;28;20027;-73
2023/05/17 09:28:18;;;;;;;15.10;2.30;;;;;;;16.30;49.41;102887.44;5050294;28;20142;-73
2023/05/17 09:30:43;;;;;;;10.18;2.53;;;;;;;16.27;50.57;102874.84;5068071;28;20032;-72
2023/05/17 09:33:10;;;;;;;13.43;2.43;;;;;;;16.77;49.33;102890.88;5067041;28;20133;-72
2023/05/17 09:35:36;;;;;;;10.38;2.10;;;;;;;16.37;48.61;102881.00;5046888;28;20021;-73
2023/05/17 09:38:12;;;;;;;14.55;2.45;;;;;;;16.43;48.91;102885.81;5068464;28;20412;-72
2023/05/17 09:40:42;;;;;;;10.23;2.33;;;;;;;16.93;47.97;102885.16;5067691;28;20109;-72
2023/05/17 09:43:09;;;;;;;11.43;2.38;;;;;;;17.03;48.26;102891.31;5065232;28;20032;-72
2023/05/17 09:45:35;;;;;;;8.77;2.45;;;;;;;16.62;47.99;102882.53;5068060;28;20494;-72
2023/05/17 09:48:12;;;;;;;19.38;2.38;;;;;;;17.03;48.09;102883.84;5065678;28;20361;-74
2023/05/17 09:50:42;;;;;;;14.63;3.05;;;;;;;17.09;47.73;102890.53;5067014;28;20464;-73
2023/05/17 09:53:47;;;;;;;12.32;2.03;;;;;;;17.37;46.97;102886.03;5051814;28;20031;-73
2023/05/17 09:56:13;;;;;;;15.55;2.53;;;;;;;17.41;46.45;102884.66;5041860;28;20422;-72
2023/05/17 09:58:39;;;;;;;16.20;2.25;;;;;;;17.28;46.24;102884.44;5050508;28;20036;-73
2023/05/17 10:01:06;;;;;;;12.80;1.87;;;;;;;16.97;46.38;102884.59;5066320;28;20024;-73
2023/05/17 10:03:40;;;;;;;8.13;1.98;;;;;;;17.24;46.86;102874.78;5069968;28;20169;-73
2023/05/17 10:06:08;;;;;;;14.65;2.42;;;;;;;16.67;47.91;102884.75;5067342;28;20058;-72
2023/05/17 10:08:35;;;;;;;17.10;2.55;;;;;;;17.46;46.21;102874.69;5048955;28;20029;-73
2023/05/17 10:11:10;;;;;;;14.68;2.45;;;;;;;17.41;46.01;102877.22;5070531;28;20032;-70
2023/05/17 10:13:48;;;;;;;13.27;2.63;;;;;;;17.00;44.33;102872.28;5066644;28;20072;-71
2023/05/17 10:16:15;;;;;;;17.58;2.60;;;;;;;17.24;43.65;102872.00;5065308;28;20062;-71
2023/05/17 10:18:41;;;;;;;6.55;2.17;;;;;;;17.24;43.85;102869.25;5068311;28;20028;-71
2023/05/17 10:21:07;;;;;;;10.07;2.10;;;;;;;18.03;44.31;102875.63;5064863;28;20438;-71
2023/05/17 10:23:33;;;;;;;11.35;2.40;;;;;;;17.29;45.29;102873.13;5067200;28;20062;-71
2023/05/17 10:26:00;;;;;;;15.80;1.87;;;;;;;17.54;45.49;102870.94;5052756;28;20069;-71
2023/05/17 10:28:27;;;;;;;7.55;1.65;;;;;;;17.92;44.77;102876.13;5067095;28;20531;-70
2023/05/17 10:30:53;;;;;;;10.80;2.47;;;;;;;17.48;44.86;102877.28;5048333;28;20508;-70
2023/05/17 10:33:20;;;;;;;13.88;2.42;;;;;;;17.85;45.07;102882.66;5065985;28;20032;-71
2023/05/17 10:35:48;;;;;;;10.50;2.58;;;;;;;18.47;44.06;102878.25;5048349;28;20044;-70
2023/05/17 10:38:13;;;;;;;13.63;2.70;;;;;;;17.73;44.01;102875.91;5046401;28;20072;-71
2023/05/17 10:40:41;;;;;;;13.90;3.20;;;;;;;17.72;44.09;102882.50;5042572;28;20020;-70
2023/05/17 10:43:09;;;;;;;14.50;2.28;;;;;;;17.77;44.39;102868.91;5043187;28;20025;-70
2023/05/17 10:45:35;;;;;;;9.70;2.03;;;;;;;18.38;45.65;102871.97;5045844;28;20031;-70
2023/05/17 10:48:04;;;;;;;13.13;2.90;;;;;;;17.96;43.13;102877.47;5042921;28;20021;-71
2023/05/17 10:50:30;;;;;;;17.30;2.53;;;;;;;18.24;42.55;102869.25;5041688;28;20500;-70
2023/05/17 10:52:58;;;;;;;10.33;2.30;;;;;;;18.15;43.33;102878.75;5045681;28;20044;-69
2023/05/17 10:55:36;;;;;;;10.60;2.28;;;;;;;18.53;43.16;102877.44;5046283;28;20021;-70
2023/05/17 10:58:18;;;;;;;13.00;2.83;;;;;;;18.23;43.54;102870.25;5048143;28;20051;-70
2023/05/17 11:00:46;;;;;;;12.57;2.25;;;;;;;18.06;43.58;102869.69;5045363;28;20370;-69
2023/05/17 11:03:25;;;;;;;15.70;3.13;;;;;;;18.25;43.00;102874.56;5039722;28;20571;-71
2023/05/17 11:06:08;;;;;;;9.50;2.78;;;;;;;18.29;43.18;102877.78;5048502;28;20060;-70
2023/05/17 11:08:35;;;;;;;12.52;3.03;;;;;;;18.56;43.45;102871.50;5047592;28;20028;-70
2023/05/17 11:11:08;;;;;;;;;;;;;;;18.55;43.57;102870.63;5045921;28;20043;-70
2023/05/17 11:13:43;;;;;;;12.27;2.30;;;;;;;18.00;43.56;102866.84;5048683;28;19920;-70
2023/05/17 11:16:09;;;;;;;15.57;2.75;;;;;;;17.79;44.56;102867.66;5043506;28;20017;-71